Time;durP1;ratioP1;P1;durP2;ratioP2;P2;SDS_P1;SDS_P2;PMS_P1;PMS_P2;Temp;Humidity;BMP_temperature;BMP_pressure;BME280_temperature;BME280_humidity;BME280_pressure;Samples;Min_cycle;Max_cycle;Signal;HPM_P1;HPM_P2
2023/09/20 00:31:43;;;;;;;11.10;3.53;;;;;;;;;;5466854;23;20058;-78
2023/09/20 00:34:57;;;;;;;8.82;3.15;;;;;;;;;;4847052;29;20053;-78
2023/09/20 00:37:38;;;;;;;10.27;3.92;;;;;;;;;;4824670;29;20053;-78
2023/09/20 00:40:17;;;;;;;6.25;3.70;;;;;;;;;;4842537;29;20058;-78
2023/09/20 00:42:58;;;;;;;8.10;3.53;;;;;;;;;;4841515;29;20177;-78
2023/09/20 00:45:30;;;;;;;11.00;4.50;;;;;;;;;;4842114;29;20072;-78
2023/09/20 00:48:02;;;;;;;10.52;3.92;;;;;;;;;;4841821;29;20057;-78
2023/09/20 00:50:41;;;;;;;9.63;3.88;;;;;;;;;;4841702;29;20057;-78
2023/09/20 00:53:14;;;;;;;8.68;4.43;;;;;;;;;;4841246;29;20425;-78
2023/09/20 00:55:46;;;;;;;9.02;3.58;;;;;;;;;;4841936;29;20053;-77
2023/09/20 00:58:20;;;;;;;5.72;3.03;;;;;;;;;;4841363;29;20050;-78
2023/09/20 01:00:54;;;;;;;6.57;3.60;;;;;;;;;;4825764;29;20046;-79
2023/09/20 01:03:25;;;;;;;10.40;3.42;;;;;;;;;;4841319;29;20046;-78
2023/09/20 01:06:05;;;;;;;12.10;3.65;;;;;;;;;;4825871;29;20046;-78
2023/09/20 01:08:40;;;;;;;9.88;4.03;;;;;;;;;;4825205;29;20061;-78
2023/09/20 01:11:11;;;;;;;;;;;;;;;;;;4825123;29;20065;-78
2023/09/20 01:13:43;;;;;;;10.52;3.20;;;;;;;;;;4824987;29;19999;-78
2023/09/20 01:16:18;;;;;;;12.10;4.25;;;;;;;;;;4841559;29;20041;-79
2023/09/20 01:18:52;;;;;;;6.57;3.65;;;;;;;;;;4840719;29;20060;-78
2023/09/20 01:21:26;;;;;;;6.57;4.00;;;;;;;;;;4826124;29;20497;-78
2023/09/20 01:23:57;;;;;;;9.40;4.80;;;;;;;;;;4841492;29;20042;-78
2023/09/20 01:26:30;;;;;;;9.18;3.50;;;;;;;;;;4841264;29;20054;-78
2023/09/20 01:29:02;;;;;;;7.70;3.20;;;;;;;;;;4841210;29;20073;-78
2023/09/20 01:31:36;;;;;;;7.40;3.42;;;;;;;;;;4841457;29;20493;-78
2023/09/20 01:34:06;;;;;;;8.60;3.35;;;;;;;;;;4844889;29;20049;-78
2023/09/20 01:36:41;;;;;;;7.72;3.38;;;;;;;;;;4845107;29;20049;-78
2023/09/20 01:39:36;;;;;;;8.48;3.28;;;;;;;;;;4844954;29;20050;-77
2023/09/20 01:42:08;;;;;;;6.00;3.30;;;;;;;;;;4859072;29;20053;-78
2023/09/20 01:44:41;;;;;;;13.30;3.30;;;;;;;;;;4828304;29;20054;-78
2023/09/20 01:47:15;;;;;;;12.80;3.45;;;;;;;;;;4844667;29;20416;-78
2023/09/20 01:49:46;;;;;;;7.82;2.92;;;;;;;;;;4844884;29;20053;-78
2023/09/20 01:52:18;;;;;;;7.85;3.78;;;;;;;;;;4844820;29;20045;-78
2023/09/20 01:54:55;;;;;;;8.15;3.55;;;;;;;;;;4844180;29;20061;-78
2023/09/20 01:57:31;;;;;;;12.10;3.92;;;;;;;;;;4844533;29;20053;-78
2023/09/20 02:00:21;;;;;;;12.65;3.45;;;;;;;;;;4827315;29;20062;-78
2023/09/20 02:02:54;;;;;;;10.50;3.35;;;;;;;;;;4843631;29;20497;-79
2023/09/20 02:05:25;;;;;;;8.68;3.25;;;;;;;;;;4844734;29;20053;-79
2023/09/20 02:08:00;;;;;;;8.52;3.92;;;;;;;;;;4828859;29;20050;-77
2023/09/20 02:10:33;;;;;;;8.32;3.38;;;;;;;;;;4844752;29;20049;-78
2023/09/20 02:13:08;;;;;;;11.27;3.42;;;;;;;;;;4828874;29;20049;-77
2023/09/20 02:15:41;;;;;;;11.27;3.25;;;;;;;;;;4858644;29;20413;-78
2023/09/20 02:18:12;;;;;;;7.80;3.20;;;;;;;;;;4844161;29;20061;-78
2023/09/20 02:20:44;;;;;;;9.82;3.20;;;;;;;;;;4844186;29;20085;-78
2023/09/20 02:23:15;;;;;;;10.50;3.63;;;;;;;;;;4844435;29;20068;-78
2023/09/20 02:25:48;;;;;;;16.70;3.67;;;;;;;;;;4827600;29;20358;-78
2023/09/20 02:28:20;;;;;;;7.50;3.40;;;;;;;;;;4843856;29;20073;-78
2023/09/20 02:30:52;;;;;;;9.68;3.58;;;;;;;;;;4831346;29;20065;-78
2023/09/20 02:33:31;;;;;;;11.00;3.42;;;;;;;;;;4876273;29;20057;-78
2023/09/20 02:36:02;;;;;;;13.32;3.47;;;;;;;;;;4862563;29;20052;-78
2023/09/20 02:38:37;;;;;;;19.02;4.22;;;;;;;;;;4862770;29;20156;-78
2023/09/20 02:41:15;;;;;;;11.93;3.75;;;;;;;;;;4862484;29;20049;-79
2023/09/20 02:43:47;;;;;;;13.98;4.30;;;;;;;;;;4861512;29;20057;-78
2023/09/20 02:46:20;;;;;;;14.40;4.18;;;;;;;;;;4862432;29;20053;-78
2023/09/20 02:48:55;;;;;;;12.25;4.38;;;;;;;;;;4875963;29;20061;-78
2023/09/20 02:51:26;;;;;;;8.30;3.65;;;;;;;;;;4862265;29;20072;-77
2023/09/20 02:53:57;;;;;;;8.98;4.10;;;;;;;;;;4856895;29;20042;-78
2023/09/20 02:56:27;;;;;;;9.43;4.10;;;;;;;;;;4862216;29;20054;-78
2023/09/20 02:59:06;;;;;;;11.65;3.90;;;;;;;;;;4861944;29;20135;-77
2023/09/20 03:01:41;;;;;;;18.40;3.92;;;;;;;;;;4875444;29;20058;-77
2023/09/20 03:04:14;;;;;;;16.85;5.18;;;;;;;;;;4875446;29;20065;-77
2023/09/20 03:06:45;;;;;;;8.95;3.65;;;;;;;;;;4862145;29;20049;-78
2023/09/20 03:09:17;;;;;;;9.25;3.70;;;;;;;;;;4845866;29;20420;-77
2023/09/20 03:11:48;;;;;;;12.27;3.97;;;;;;;;;;4844742;29;20061;-78
2023/09/20 03:14:19;;;;;;;11.05;4.40;;;;;;;;;;4861576;29;20416;-79
2023/09/20 03:16:50;;;;;;;11.15;4.80;;;;;;;;;;4844422;29;20453;-77
2023/09/20 03:19:25;;;;;;;13.15;4.03;;;;;;;;;;4876067;29;20069;-77
2023/09/20 03:22:01;;;;;;;14.60;4.90;;;;;;;;;;4877068;29;20074;-77
2023/09/20 03:24:35;;;;;;;15.20;4.55;;;;;;;;;;4845961;29;20128;-77
2023/09/20 03:27:06;;;;;;;11.20;4.47;;;;;;;;;;4864289;29;20475;-78
2023/09/20 03:29:46;;;;;;;13.95;3.53;;;;;;;;;;4869695;29;20041;-78
2023/09/20 03:32:22;;;;;;;16.77;4.75;;;;;;;;;;4900358;29;20080;-78
2023/09/20 03:34:59;;;;;;;15.30;4.03;;;;;;;;;;4900862;29;20117;-78
2023/09/20 03:37:32;;;;;;;12.25;4.55;;;;;;;;;;4885379;29;20060;-78
2023/09/20 03:40:17;;;;;;;18.33;4.65;;;;;;;;;;4900180;29;20063;-78
2023/09/20 03:42:54;;;;;;;16.45;4.50;;;;;;;;;;4900412;29;20053;-79
2023/09/20 03:45:28;;;;;;;16.52;4.57;;;;;;;;;;4858181;29;20060;-78
2023/09/20 03:48:01;;;;;;;19.80;4.82;;;;;;;;;;4845592;29;20053;-78
2023/09/20 03:50:33;;;;;;;28.92;5.07;;;;;;;;;;4862301;29;20053;-78
2023/09/20 03:53:05;;;;;;;25.85;5.72;;;;;;;;;;4862487;29;20361;-78
2023/09/20 03:55:35;;;;;;;31.85;5.43;;;;;;;;;;4861925;29;20050;-78
2023/09/20 03:58:08;;;;;;;24.85;6.00;;;;;;;;;;4875700;29;20053;-78
2023/09/20 04:00:45;;;;;;;18.13;5.40;;;;;;;;;;4875291;29;20500;-78
2023/09/20 04:03:17;;;;;;;16.40;5.75;;;;;;;;;;4845638;29;20057;-78
2023/09/20 04:05:57;;;;;;;20.25;6.13;;;;;;;;;;4876053;29;20060;-78
2023/09/20 04:08:27;;;;;;;29.63;6.25;;;;;;;;;;4862121;29;20045;-78
2023/09/20 04:11:04;;;;;;;26.50;5.65;;;;;;;;;;4862269;29;20060;-78
2023/09/20 04:13:42;;;;;;;;;;;;;;;;;;4862398;29;20497;-78
2023/09/20 04:16:13;;;;;;;22.65;5.35;;;;;;;;;;4862194;29;19924;-78
2023/09/20 04:18:44;;;;;;;32.60;5.88;;;;;;;;;;4861709;29;20481;-78
2023/09/20 04:21:15;;;;;;;31.52;5.10;;;;;;;;;;4875893;29;20064;-78
2023/09/20 04:23:45;;;;;;;38.65;5.85;;;;;;;;;;4861586;29;20045;-78
2023/09/20 04:26:16;;;;;;;47.42;6.25;;;;;;;;;;4844836;29;20064;-78
2023/09/20 04:28:48;;;;;;;52.53;5.63;;;;;;;;;;4861561;29;20045;-79
2023/09/20 04:31:21;;;;;;;40.85;5.45;;;;;;;;;;4875441;29;20072;-78
2023/09/20 04:33:53;;;;;;;36.70;5.50;;;;;;;;;;4844361;29;20461;-78
2023/09/20 04:36:23;;;;;;;;;;;;;;;;;;4859676;29;20076;-78
2023/09/20 04:38:53;;;;;;;39.60;5.55;;;;;;;;;;4875012;29;20284;-78
2023/09/20 04:41:24;;;;;;;36.53;5.70;;;;;;;;;;4861258;29;20385;-78
2023/09/20 04:43:56;;;;;;;33.75;5.50;;;;;;;;;;4861049;29;20492;-78
2023/09/20 04:46:29;;;;;;;;;;;;;;;;;;4875219;29;20074;-78
2023/09/20 04:49:01;;;;;;;28.17;4.93;;;;;;;;;;4874546;29;19931;-78
2023/09/20 04:51:34;;;;;;;43.47;5.53;;;;;;;;;;4875582;29;20064;-78
2023/09/20 04:54:08;;;;;;;39.22;5.85;;;;;;;;;;4844585;29;20053;-78
2023/09/20 04:56:47;;;;;;;35.53;5.75;;;;;;;;;;4860152;29;20064;-78
2023/09/20 04:59:22;;;;;;;25.52;5.15;;;;;;;;;;4844631;29;20069;-78
2023/09/20 05:01:54;;;;;;;31.83;5.30;;;;;;;;;;4874364;29;20060;-78
2023/09/20 05:04:30;;;;;;;32.47;5.55;;;;;;;;;;4845322;29;20042;-79
2023/09/20 05:07:05;;;;;;;31.98;4.68;;;;;;;;;;4843539;29;20053;-79
2023/09/20 05:09:39;;;;;;;37.78;5.53;;;;;;;;;;4844079;29;20084;-79
2023/09/20 05:12:10;;;;;;;18.60;4.90;;;;;;;;;;4843617;29;20054;-78
2023/09/20 05:14:43;;;;;;;16.50;4.78;;;;;;;;;;4874347;29;20139;-79
2023/09/20 05:17:15;;;;;;;10.13;5.13;;;;;;;;;;4860966;29;20430;-79
2023/09/20 05:19:50;;;;;;;11.00;4.70;;;;;;;;;;4860586;29;20049;-79
2023/09/20 05:22:19;;;;;;;14.70;4.63;;;;;;;;;;4861212;29;20052;-79
2023/09/20 05:24:58;;;;;;;15.82;4.82;;;;;;;;;;4861057;29;20049;-79
2023/09/20 05:27:29;;;;;;;12.20;5.03;;;;;;;;;;4860918;29;20042;-79
2023/09/20 05:30:00;;;;;;;13.85;5.43;;;;;;;;;;4860927;29;20397;-79
2023/09/20 05:32:30;;;;;;;13.75;5.63;;;;;;;;;;4874022;29;20064;-79
2023/09/20 05:35:08;;;;;;;12.52;5.32;;;;;;;;;;4860804;29;20060;-79
2023/09/20 05:37:42;;;;;;;10.77;5.63;;;;;;;;;;4860590;29;20511;-79
2023/09/20 05:40:19;;;;;;;11.18;5.38;;;;;;;;;;4860910;29;20069;-79
2023/09/20 05:42:52;;;;;;;13.70;5.57;;;;;;;;;;4860809;29;20053;-79
2023/09/20 05:45:26;;;;;;;14.25;6.10;;;;;;;;;;4860701;29;20390;-79
2023/09/20 05:48:03;;;;;;;22.42;5.93;;;;;;;;;;4860620;29;20061;-79
2023/09/20 05:50:34;;;;;;;;;;;;;;;;;;4861222;29;20061;-79
2023/09/20 05:53:11;;;;;;;11.88;5.53;;;;;;;;;;4860139;29;19924;-79
2023/09/20 05:55:44;;;;;;;11.05;6.10;;;;;;;;;;4860532;29;20053;-79
2023/09/20 05:58:19;;;;;;;16.38;5.88;;;;;;;;;;4861177;29;20061;-79
2023/09/20 06:00:51;;;;;;;13.30;5.93;;;;;;;;;;4860395;29;20054;-79
2023/09/20 06:03:23;;;;;;;12.10;6.28;;;;;;;;;;4860483;29;20061;-79
2023/09/20 06:05:57;;;;;;;15.07;7.22;;;;;;;;;;4844199;29;20078;-79
2023/09/20 06:08:28;;;;;;;11.80;6.32;;;;;;;;;;4860409;29;20072;-79
2023/09/20 06:11:04;;;;;;;16.60;6.55;;;;;;;;;;4860690;29;20049;-79
2023/09/20 06:13:35;;;;;;;13.15;6.80;;;;;;;;;;4860664;29;20045;-78
2023/09/20 06:16:09;;;;;;;14.93;6.43;;;;;;;;;;4844475;29;20054;-78
2023/09/20 06:18:42;;;;;;;15.50;6.28;;;;;;;;;;4862415;29;20060;-78
2023/09/20 06:21:31;;;;;;;;;;;;;;;;;;4850623;29;20430;-78
2023/09/20 06:24:02;;;;;;;14.15;5.70;;;;;;;;;;4863752;29;19924;-78
2023/09/20 06:26:35;;;;;;;31.85;7.53;;;;;;;;;;4863570;29;20393;-79
2023/09/20 06:29:11;;;;;;;15.82;5.68;;;;;;;;;;4847648;29;20049;-79
2023/09/20 06:31:42;;;;;;;24.13;6.18;;;;;;;;;;4863505;29;20050;-79
2023/09/20 06:34:17;;;;;;;12.55;6.20;;;;;;;;;;4863631;29;20074;-80
2023/09/20 06:36:51;;;;;;;15.85;6.30;;;;;;;;;;4863512;29;20351;-79
2023/09/20 06:39:25;;;;;;;19.08;7.43;;;;;;;;;;4863823;29;20384;-80
2023/09/20 06:41:58;;;;;;;17.10;5.97;;;;;;;;;;4863381;29;20054;-80
2023/09/20 06:44:38;;;;;;;25.83;6.70;;;;;;;;;;4847239;29;20058;-80
2023/09/20 06:47:10;;;;;;;16.05;6.03;;;;;;;;;;4863779;29;20057;-78
2023/09/20 06:49:42;;;;;;;11.93;5.00;;;;;;;;;;4863413;29;20049;-78
2023/09/20 06:52:18;;;;;;;22.02;6.18;;;;;;;;;;4863674;29;20050;-78
2023/09/20 06:54:48;;;;;;;22.98;6.30;;;;;;;;;;4863444;29;20057;-78
2023/09/20 06:57:21;;;;;;;14.18;5.38;;;;;;;;;;4863360;29;20056;-78
2023/09/20 06:59:54;;;;;;;17.73;6.10;;;;;;;;;;4863111;29;20069;-78
2023/09/20 07:02:25;;;;;;;21.00;5.47;;;;;;;;;;4863417;29;20049;-78
2023/09/20 07:04:56;;;;;;;18.15;6.07;;;;;;;;;;4863580;29;20068;-78
2023/09/20 07:07:27;;;;;;;29.55;6.47;;;;;;;;;;4862944;29;20072;-79
2023/09/20 07:10:02;;;;;;;15.98;5.97;;;;;;;;;;4863009;29;20067;-78
2023/09/20 07:12:36;;;;;;;19.80;5.80;;;;;;;;;;4862584;29;20397;-78
2023/09/20 07:15:08;;;;;;;19.73;6.38;;;;;;;;;;4863479;29;20046;-78
2023/09/20 07:17:42;;;;;;;;;;;;;;;;;;4862901;29;20049;-78
2023/09/20 07:20:20;;;;;;;19.90;5.80;;;;;;;;;;4862478;29;19927;-78
2023/09/20 07:22:53;;;;;;;15.10;5.60;;;;;;;;;;4863189;29;20062;-78
2023/09/20 07:25:27;;;;;;;13.77;6.03;;;;;;;;;;4862405;29;20061;-78
2023/09/20 07:28:00;;;;;;;14.95;5.35;;;;;;;;;;4862482;29;20049;-78
2023/09/20 07:30:39;;;;;;;18.30;5.35;;;;;;;;;;4861796;29;20045;-78
2023/09/20 07:33:14;;;;;;;16.65;6.00;;;;;;;;;;4862253;29;20052;-78
2023/09/20 07:35:48;;;;;;;15.02;5.43;;;;;;;;;;4862336;29;20400;-78
2023/09/20 07:38:29;;;;;;;15.90;5.43;;;;;;;;;;4862011;29;20523;-78
2023/09/20 07:41:08;;;;;;;17.73;5.47;;;;;;;;;;4862702;29;20068;-78
2023/09/20 07:43:47;;;;;;;11.30;5.50;;;;;;;;;;4862419;29;20049;-78
2023/09/20 07:46:20;;;;;;;25.45;5.65;;;;;;;;;;4846141;29;20052;-78
2023/09/20 07:48:56;;;;;;;26.23;5.97;;;;;;;;;;4846707;29;20046;-78
2023/09/20 07:51:29;;;;;;;24.30;6.07;;;;;;;;;;4862349;29;20053;-78
2023/09/20 07:54:06;;;;;;;16.25;5.38;;;;;;;;;;4846698;29;20053;-78
2023/09/20 07:56:40;;;;;;;18.17;5.72;;;;;;;;;;4862518;29;20053;-78
2023/09/20 07:59:13;;;;;;;19.08;5.22;;;;;;;;;;4862044;29;20057;-78
2023/09/20 08:01:48;;;;;;;16.90;5.72;;;;;;;;;;4862118;29;20050;-78
2023/09/20 08:04:19;;;;;;;13.65;4.88;;;;;;;;;;4844985;29;20497;-78
2023/09/20 08:06:49;;;;;;;18.45;5.00;;;;;;;;;;4862372;29;20049;-78
2023/09/20 08:09:20;;;;;;;11.73;5.38;;;;;;;;;;4862206;29;20046;-78
2023/09/20 08:11:54;;;;;;;10.43;4.72;;;;;;;;;;4862250;29;20065;-78
2023/09/20 08:14:25;;;;;;;12.70;4.95;;;;;;;;;;4861694;29;20508;-78
2023/09/20 08:19:45;;;;;;;11.38;4.72;;;;;;;;;;4862062;29;20072;-78
2023/09/20 08:22:17;;;;;;;14.43;5.97;;;;;;;;;;4861575;29;20057;-78
2023/09/20 09:02:27;;;;;;;9.15;4.20;;;;;;;;;;4861139;29;20366;-78
2023/09/20 09:04:58;;;;;;;8.88;4.90;;;;;;;;;;4861295;29;20068;-78
2023/09/20 09:07:29;;;;;;;8.55;4.85;;;;;;;;;;4844988;29;20049;-78
2023/09/20 09:09:59;;;;;;;8.73;4.32;;;;;;;;;;4861254;29;20392;-78
2023/09/20 09:12:29;;;;;;;10.18;4.88;;;;;;;;;;4861118;29;20049;-78
2023/09/20 09:15:00;;;;;;;11.65;4.75;;;;;;;;;;4844668;29;20053;-78
2023/09/20 09:17:44;;;;;;;10.35;4.63;;;;;;;;;;4861195;29;20046;-78
2023/09/20 09:20:21;;;;;;;10.13;4.75;;;;;;;;;;4844972;29;20057;-78
2023/09/20 09:22:53;;;;;;;7.93;4.18;;;;;;;;;;4860457;29;20273;-78
2023/09/20 09:25:31;;;;;;;7.93;4.80;;;;;;;;;;4849900;29;20062;-79
2023/09/20 09:28:05;;;;;;;9.27;5.00;;;;;;;;;;4883863;29;20038;-79
2023/09/20 09:30:37;;;;;;;8.55;5.18;;;;;;;;;;4884252;29;20034;-80
2023/09/20 09:33:13;;;;;;;7.53;4.03;;;;;;;;;;4884277;29;20048;-79
2023/09/20 09:35:50;;;;;;;13.55;4.68;;;;;;;;;;4884283;29;20034;-81
2023/09/20 09:38:22;;;;;;;9.73;4.68;;;;;;;;;;4884571;29;20059;-80
2023/09/20 09:40:56;;;;;;;17.33;4.75;;;;;;;;;;4868598;29;20029;-80
2023/09/20 09:43:29;;;;;;;29.52;5.38;;;;;;;;;;4845071;29;20069;-78
2023/09/20 09:46:08;;;;;;;20.60;5.45;;;;;;;;;;4860628;29;20049;-78
2023/09/20 09:48:46;;;;;;;18.38;5.47;;;;;;;;;;4860697;29;20049;-78
2023/09/20 09:51:19;;;;;;;17.38;6.90;;;;;;;;;;4860587;29;20060;-78
2023/09/20 09:53:50;;;;;;;13.07;4.75;;;;;;;;;;4862231;29;20420;-80
2023/09/20 09:56:22;;;;;;;10.32;4.78;;;;;;;;;;4861321;29;20148;-78
2023/09/20 09:58:54;;;;;;;8.35;4.85;;;;;;;;;;4863350;29;20509;-77
2023/09/20 10:01:30;;;;;;;11.75;4.78;;;;;;;;;;4863321;29;20496;-78
2023/09/20 10:04:08;;;;;;;9.43;4.90;;;;;;;;;;4875313;29;20066;-78
2023/09/20 10:06:54;;;;;;;11.07;4.90;;;;;;;;;;4861783;29;20497;-78
2023/09/20 10:09:30;;;;;;;11.00;5.07;;;;;;;;;;4861850;29;20500;-78
2023/09/20 10:12:04;;;;;;;10.20;5.07;;;;;;;;;;4860777;29;20065;-78
2023/09/20 10:14:38;;;;;;;10.25;5.63;;;;;;;;;;4863732;29;20050;-78
2023/09/20 10:17:08;;;;;;;10.63;4.22;;;;;;;;;;4863983;29;20501;-79
2023/09/20 10:19:39;;;;;;;9.30;4.97;;;;;;;;;;4864379;29;20057;-79
2023/09/20 10:22:21;;;;;;;9.60;4.95;;;;;;;;;;4863782;29;20488;-79
2023/09/20 10:24:54;;;;;;;7.82;4.40;;;;;;;;;;4863856;29;20050;-79
2023/09/20 10:27:31;;;;;;;7.15;4.78;;;;;;;;;;4866004;29;20052;-79
2023/09/20 10:30:09;;;;;;;7.47;4.32;;;;;;;;;;4863704;29;20057;-79
2023/09/20 10:32:58;;;;;;;8.23;4.93;;;;;;;;;;4867298;29;20053;-79
2023/09/20 10:35:33;;;;;;;7.65;4.15;;;;;;;;;;4870560;29;20056;-78
2023/09/20 10:38:08;;;;;;;7.97;4.30;;;;;;;;;;4873005;29;20053;-78
2023/09/20 10:40:51;;;;;;;8.38;4.78;;;;;;;;;;4844926;29;20141;-77
2023/09/20 10:43:36;;;;;;;8.60;5.40;;;;;;;;;;4845302;29;20071;-78
2023/09/20 10:46:07;;;;;;;9.57;5.85;;;;;;;;;;4864197;29;20049;-78
2023/09/20 10:48:50;;;;;;;14.27;6.40;;;;;;;;;;4872213;29;20507;-78
2023/09/20 10:51:48;;;;;;;12.57;5.68;;;;;;;;;;4873995;29;20393;-77
2023/09/20 10:54:29;;;;;;;;;;;;;;;;;;4864046;29;20049;-78
2023/09/20 10:57:10;;;;;;;9.20;5.43;;;;;;;;;;4863694;29;20371;-78
2023/09/20 10:59:45;;;;;;;10.65;5.80;;;;;;;;;;4863359;29;20046;-78
2023/09/20 11:02:17;;;;;;;10.30;5.53;;;;;;;;;;4862902;29;20424;-80
2023/09/20 11:04:54;;;;;;;11.25;6.85;;;;;;;;;;4861743;29;20053;-82
2023/09/20 11:07:26;;;;;;;16.10;7.95;;;;;;;;;;4863013;29;20163;-82
2023/09/20 11:09:57;;;;;;;18.10;8.68;;;;;;;;;;4876565;29;20045;-81
2023/09/20 11:12:28;;;;;;;14.57;8.63;;;;;;;;;;4862811;29;20378;-82
2023/09/20 11:15:06;;;;;;;17.33;8.60;;;;;;;;;;4860876;29;20054;-82
2023/09/20 11:17:36;;;;;;;17.23;8.30;;;;;;;;;;4863202;29;20061;-83
2023/09/20 11:20:12;;;;;;;16.60;8.70;;;;;;;;;;4846387;29;20061;-81
2023/09/20 11:22:44;;;;;;;17.88;8.35;;;;;;;;;;4862472;29;20053;-84
2023/09/20 11:25:18;;;;;;;13.43;7.68;;;;;;;;;;4862906;29;20050;-80
2023/09/20 11:27:49;;;;;;;17.85;8.10;;;;;;;;;;4860156;29;20053;-81
2023/09/20 11:30:28;;;;;;;19.25;8.55;;;;;;;;;;4860079;29;20501;-79
2023/09/20 11:33:03;;;;;;;14.02;7.53;;;;;;;;;;4858314;29;20060;-83
2023/09/20 11:35:42;;;;;;;13.13;6.45;;;;;;;;;;4859989;29;20072;-80
2023/09/20 11:38:16;;;;;;;11.55;5.57;;;;;;;;;;4859399;29;20505;-79
2023/09/20 11:40:48;;;;;;;10.68;5.82;;;;;;;;;;4843058;29;20050;-79
2023/09/20 11:43:22;;;;;;;10.18;5.72;;;;;;;;;;4861404;29;20050;-81
2023/09/20 11:45:57;;;;;;;12.05;5.75;;;;;;;;;;4859694;29;20446;-79
2023/09/20 11:48:31;;;;;;;13.82;5.70;;;;;;;;;;4859946;29;20041;-80
2023/09/20 11:51:02;;;;;;;18.38;6.90;;;;;;;;;;4861228;29;20484;-80
2023/09/20 11:53:37;;;;;;;13.70;7.50;;;;;;;;;;4862415;29;20053;-82
2023/09/20 11:56:07;;;;;;;13.73;7.78;;;;;;;;;;4862477;29;20401;-80
2023/09/20 11:58:43;;;;;;;18.52;8.02;;;;;;;;;;4862205;29;20053;-79
2023/09/20 12:01:13;;;;;;;17.52;8.25;;;;;;;;;;4862163;29;20079;-79
2023/09/20 12:03:51;;;;;;;17.52;8.95;;;;;;;;;;4861507;29;20081;-80
2023/09/20 12:06:27;;;;;;;14.98;8.30;;;;;;;;;;4846670;29;20053;-80
2023/09/20 12:09:00;;;;;;;17.80;8.07;;;;;;;;;;4844969;29;20057;-84
2023/09/20 12:11:30;;;;;;;17.77;8.02;;;;;;;;;;4862037;29;20041;-82
2023/09/20 12:14:01;;;;;;;14.30;6.75;;;;;;;;;;4845174;29;20072;-81
2023/09/20 12:16:35;;;;;;;11.57;6.13;;;;;;;;;;4861418;29;20076;-81
2023/09/20 12:19:07;;;;;;;11.75;5.78;;;;;;;;;;4844951;29;20056;-82
2023/09/20 12:21:37;;;;;;;15.85;7.10;;;;;;;;;;4861831;29;20056;-82
2023/09/20 12:24:13;;;;;;;14.23;7.13;;;;;;;;;;4861734;29;20365;-82
2023/09/20 12:26:48;;;;;;;13.82;6.55;;;;;;;;;;4861774;29;20048;-82
2023/09/20 12:29:19;;;;;;;11.40;5.72;;;;;;;;;;4844541;29;20062;-82
2023/09/20 12:31:49;;;;;;;13.32;6.20;;;;;;;;;;4859525;29;20057;-85
2023/09/20 12:34:23;;;;;;;11.07;6.18;;;;;;;;;;4861056;29;20042;-81
2023/09/20 12:36:56;;;;;;;13.07;6.45;;;;;;;;;;4860744;29;20536;-81
2023/09/20 12:39:27;;;;;;;11.45;6.15;;;;;;;;;;4860673;29;20053;-84
2023/09/20 12:41:57;;;;;;;13.52;6.35;;;;;;;;;;4844128;29;20061;-81
2023/09/20 12:44:27;;;;;;;10.50;5.93;;;;;;;;;;4860347;29;20057;-81
2023/09/20 12:46:58;;;;;;;14.02;6.55;;;;;;;;;;4860100;29;20041;-80
2023/09/20 12:49:36;;;;;;;11.63;5.72;;;;;;;;;;4860429;29;20052;-80
2023/09/20 12:52:07;;;;;;;9.55;5.35;;;;;;;;;;4859450;29;20400;-80
2023/09/20 12:54:37;;;;;;;12.45;5.38;;;;;;;;;;4859969;29;20049;-80
2023/09/20 12:57:13;;;;;;;14.35;6.45;;;;;;;;;;4860318;29;20045;-78
2023/09/20 12:59:44;;;;;;;13.07;5.45;;;;;;;;;;4860583;29;20057;-81
2023/09/20 13:02:15;;;;;;;9.85;4.57;;;;;;;;;;4860225;29;20053;-82
2023/09/20 13:04:50;;;;;;;7.75;4.40;;;;;;;;;;4860557;29;20058;-80
2023/09/20 13:07:21;;;;;;;10.02;5.68;;;;;;;;;;4860278;29;20060;-83
2023/09/20 13:09:57;;;;;;;11.00;5.40;;;;;;;;;;4858644;29;20065;-81
2023/09/20 13:12:28;;;;;;;10.73;5.22;;;;;;;;;;4873228;29;20071;-82
2023/09/20 13:15:00;;;;;;;9.05;5.13;;;;;;;;;;4858943;29;20041;-80
2023/09/20 13:17:31;;;;;;;11.48;5.60;;;;;;;;;;4859541;29;20056;-83
2023/09/20 13:20:05;;;;;;;9.15;4.80;;;;;;;;;;4859385;29;20045;-82
2023/09/20 13:22:36;;;;;;;15.98;5.57;;;;;;;;;;4859851;29;20061;-81
2023/09/20 13:25:14;;;;;;;9.88;4.70;;;;;;;;;;4860205;29;20057;-82
2023/09/20 13:27:47;;;;;;;9.85;4.90;;;;;;;;;;4859849;29;20050;-82
2023/09/20 13:34:02;;;;;;;20.02;12.68;;;;;;;;;;4841006;29;20054;-82
2023/09/20 13:36:33;;;;;;;10.07;4.85;;;;;;;;;;4841955;29;20104;-81
2023/09/20 13:39:05;;;;;;;31.73;14.85;;;;;;;;;;4841467;29;20062;-80
2023/09/20 13:41:36;;;;;;;10.55;6.60;;;;;;;;;;4841492;29;20474;-83
2023/09/20 13:44:09;;;;;;;11.98;6.25;;;;;;;;;;4843669;29;20057;-81
2023/09/20 13:46:41;;;;;;;11.88;6.45;;;;;;;;;;4845166;29;20045;-79
2023/09/20 13:49:15;;;;;;;10.90;5.95;;;;;;;;;;4860093;29;20064;-80
2023/09/20 13:51:48;;;;;;;9.75;5.82;;;;;;;;;;4860277;29;20054;-81
2023/09/20 13:54:20;;;;;;;8.27;5.15;;;;;;;;;;4860173;29;20406;-80
2023/09/20 13:56:52;;;;;;;11.48;5.30;;;;;;;;;;4844132;29;20046;-82
2023/09/20 13:59:24;;;;;;;8.85;4.60;;;;;;;;;;4860930;29;20045;-80
2023/09/20 14:01:57;;;;;;;8.50;4.97;;;;;;;;;;4860166;29;20397;-84
2023/09/20 14:04:29;;;;;;;9.30;5.50;;;;;;;;;;4860175;29;20041;-84
2023/09/20 14:07:02;;;;;;;11.32;5.15;;;;;;;;;;4860019;29;20052;-81
2023/09/20 14:09:32;;;;;;;12.38;5.10;;;;;;;;;;4860202;29;20068;-81
2023/09/20 14:12:05;;;;;;;13.88;4.90;;;;;;;;;;4860101;29;20045;-80
2023/09/20 14:14:37;;;;;;;8.45;4.93;;;;;;;;;;4860134;29;20060;-84
2023/09/20 14:17:08;;;;;;;9.57;4.82;;;;;;;;;;4859946;29;20133;-80
2023/09/20 14:19:38;;;;;;;11.00;5.25;;;;;;;;;;4860131;29;20058;-80
2023/09/20 14:22:10;;;;;;;10.40;5.20;;;;;;;;;;4844061;29;20050;-85
2023/09/20 14:24:41;;;;;;;11.80;4.97;;;;;;;;;;4839540;29;20049;-82
2023/09/20 14:27:17;;;;;;;10.63;5.28;;;;;;;;;;4840594;29;20061;-83
2023/09/20 14:29:51;;;;;;;12.10;5.57;;;;;;;;;;4840919;29;20065;-80
2023/09/20 14:32:24;;;;;;;10.02;5.20;;;;;;;;;;4841181;29;20065;-80
2023/09/20 14:34:59;;;;;;;12.27;5.57;;;;;;;;;;4841062;29;20069;-81
2023/09/20 14:37:33;;;;;;;10.05;5.80;;;;;;;;;;4840758;29;20054;-80
2023/09/20 14:40:03;;;;;;;11.82;5.70;;;;;;;;;;4841660;29;20073;-83
2023/09/20 14:42:35;;;;;;;9.55;6.05;;;;;;;;;;4844424;29;20058;-82
2023/09/20 14:45:06;;;;;;;12.95;7.28;;;;;;;;;;4843098;29;20471;-85
2023/09/20 14:47:40;;;;;;;11.45;6.65;;;;;;;;;;4827751;29;20508;-81
2023/09/20 14:50:15;;;;;;;10.25;6.20;;;;;;;;;;4843858;29;20046;-81
2023/09/20 14:52:48;;;;;;;10.48;5.65;;;;;;;;;;4843639;29;20054;-82
2023/09/20 14:55:21;;;;;;;11.00;5.80;;;;;;;;;;4843456;29;20063;-85
2023/09/20 14:57:58;;;;;;;9.50;5.63;;;;;;;;;;4843640;29;20536;-84
2023/09/20 15:00:30;;;;;;;11.25;6.30;;;;;;;;;;4843171;29;20046;-84
2023/09/20 15:03:02;;;;;;;13.07;5.72;;;;;;;;;;4842011;29;20527;-80
2023/09/20 15:05:41;;;;;;;;;;;;;;;;;;4843236;29;20058;-82
2023/09/20 15:08:18;;;;;;;10.60;5.95;;;;;;;;;;4843395;29;20410;-81
2023/09/20 15:10:51;;;;;;;10.15;6.28;;;;;;;;;;4843248;29;20049;-84
2023/09/20 15:13:22;;;;;;;9.52;5.28;;;;;;;;;;4843209;29;20053;-81
2023/09/20 15:15:58;;;;;;;12.55;5.88;;;;;;;;;;4843862;29;20061;-81
2023/09/20 15:18:35;;;;;;;10.23;6.03;;;;;;;;;;4843231;29;20058;-82
2023/09/20 15:21:07;;;;;;;8.82;5.88;;;;;;;;;;4843307;29;20053;-83
2023/09/20 15:23:39;;;;;;;10.20;5.60;;;;;;;;;;4842596;29;20054;-85
2023/09/20 15:26:17;;;;;;;12.88;5.75;;;;;;;;;;4842548;29;20050;-80
2023/09/20 15:28:49;;;;;;;11.48;5.63;;;;;;;;;;4843784;29;20509;-80
2023/09/20 15:31:19;;;;;;;;;;;;;;;;;;4842996;29;20042;-81
2023/09/20 15:33:50;;;;;;;10.70;6.35;;;;;;;;;;4841414;29;19932;-81
2023/09/20 15:36:24;;;;;;;10.68;5.50;;;;;;;;;;4842666;29;20053;-80
2023/09/20 15:38:57;;;;;;;8.70;5.55;;;;;;;;;;4833091;29;20049;-83
2023/09/20 15:41:29;;;;;;;7.70;5.38;;;;;;;;;;4862123;29;20066;-82
2023/09/20 15:44:05;;;;;;;11.93;5.40;;;;;;;;;;4861786;29;20053;-80
2023/09/20 15:46:36;;;;;;;8.50;5.10;;;;;;;;;;4861896;29;20077;-81
2023/09/20 15:49:12;;;;;;;8.48;4.82;;;;;;;;;;4862160;29;20065;-81
2023/09/20 15:51:42;;;;;;;9.43;4.88;;;;;;;;;;4861696;29;20413;-82
2023/09/20 15:54:14;;;;;;;8.48;5.68;;;;;;;;;;4862003;29;20049;-85
2023/09/20 15:56:46;;;;;;;;;;;;;;;;;;4862466;29;20053;-81
2023/09/20 15:59:21;;;;;;;7.95;5.57;;;;;;;;;;4861159;29;19941;-82
2023/09/20 16:01:54;;;;;;;9.43;5.22;;;;;;;;;;4860475;29;20052;-80
2023/09/20 16:04:25;;;;;;;8.35;5.43;;;;;;;;;;4861778;29;20052;-81
2023/09/20 16:06:58;;;;;;;11.02;6.05;;;;;;;;;;4861489;29;20050;-81
2023/09/20 16:09:29;;;;;;;10.48;5.78;;;;;;;;;;4861413;29;20045;-85
2023/09/20 16:12:02;;;;;;;10.82;6.57;;;;;;;;;;4861212;29;20069;-80
2023/09/20 16:14:32;;;;;;;9.15;6.25;;;;;;;;;;4850578;29;20424;-82
2023/09/20 16:17:05;;;;;;;12.02;6.15;;;;;;;;;;4842830;29;20058;-81
2023/09/20 16:19:40;;;;;;;12.60;6.05;;;;;;;;;;4843375;29;20050;-81
2023/09/20 16:22:13;;;;;;;13.27;5.93;;;;;;;;;;4842322;29;20046;-81
2023/09/20 16:24:44;;;;;;;9.77;6.25;;;;;;;;;;4827133;29;20046;-81
2023/09/20 16:27:15;;;;;;;8.55;6.07;;;;;;;;;;4842727;29;20073;-81
2023/09/20 16:29:50;;;;;;;10.90;6.72;;;;;;;;;;4842622;29;20054;-85